createdAt,value
2023-04-27T00:01:12.363Z,2.25
2023-04-27T00:04:14.625Z,2.20
2023-04-27T00:07:16.766Z,2.13
2023-04-27T00:10:18.431Z,2.09
2023-04-27T00:13:20.052Z,2.05
2023-04-27T00:16:21.613Z,2.00
2023-04-27T00:19:23.536Z,1.97
2023-04-27T00:22:25.098Z,1.92
2023-04-27T00:25:26.816Z,1.88
2023-04-27T00:28:28.519Z,1.85
2023-04-27T00:31:30.300Z,1.82
2023-04-27T00:34:31.898Z,1.80
2023-04-27T00:37:33.457Z,1.76
2023-04-27T00:40:34.962Z,1.72
2023-04-27T00:43:44.060Z,1.69
2023-04-27T00:46:45.700Z,1.67
2023-04-27T00:49:47.370Z,1.65
2023-04-27T00:52:49.014Z,1.62
2023-04-27T00:55:50.740Z,1.59
2023-04-27T00:58:52.290Z,1.59
2023-04-27T01:01:55.197Z,1.57
2023-04-27T01:04:57.258Z,1.55
2023-04-27T01:07:58.944Z,1.52
2023-04-27T01:11:00.484Z,1.50
2023-04-27T01:14:06.956Z,1.46
2023-04-27T01:17:08.630Z,1.43
2023-04-27T01:20:11.216Z,1.42
2023-04-27T01:23:16.621Z,1.39
2023-04-27T01:26:18.730Z,1.36
2023-04-27T01:29:21.443Z,1.34
2023-04-27T01:32:23.041Z,1.30
2023-04-27T01:35:25.698Z,1.29
2023-04-27T01:38:29.306Z,1.52
2023-04-27T01:41:31.450Z,1.59
2023-04-27T01:44:33.285Z,1.62
2023-04-27T01:47:34.977Z,1.57
2023-04-27T01:50:36.521Z,1.52
2023-04-27T01:53:38.093Z,1.49
2023-04-27T01:56:39.732Z,1.43
2023-04-27T01:59:41.377Z,1.39
2023-04-27T02:02:43.097Z,1.34
2023-04-27T02:05:44.772Z,1.32
2023-04-27T02:08:46.348Z,1.27
2023-04-27T02:11:47.914Z,1.23
2023-04-27T02:14:49.430Z,1.20
2023-04-27T02:17:51.188Z,1.15
2023-04-27T02:20:53.057Z,1.12
2023-04-27T02:23:54.577Z,1.10
2023-04-27T02:26:56.358Z,1.06
2023-04-27T02:29:58.105Z,1.03
2023-04-27T02:33:00.924Z,0.99
2023-04-27T02:36:02.594Z,0.95
2023-04-27T02:39:04.213Z,0.92
2023-04-27T02:42:05.797Z,0.88
2023-04-27T02:45:08.252Z,0.84
2023-04-27T02:48:09.868Z,0.80
2023-04-27T02:51:11.506Z,0.75
2023-04-27T02:54:13.047Z,0.71
2023-04-27T02:57:14.597Z,0.65
2023-04-27T03:00:17.008Z,0.59
2023-04-27T03:03:18.766Z,0.55
2023-04-27T03:06:20.444Z,0.53
2023-04-27T03:09:21.977Z,0.51
2023-04-27T03:12:23.489Z,0.48
2023-04-27T03:15:25.123Z,0.44
2023-04-27T03:18:26.734Z,0.41
2023-04-27T03:21:28.662Z,0.38
2023-04-27T03:24:31.211Z,0.36
2023-04-27T03:27:32.792Z,0.33
2023-04-27T03:30:34.360Z,0.29
2023-04-27T03:33:36.565Z,0.26
2023-04-27T03:36:38.130Z,0.23
2023-04-27T03:39:39.821Z,0.20
2023-04-27T03:42:41.418Z,0.16
2023-04-27T03:45:43.032Z,0.12
2023-04-27T03:48:44.613Z,0.09
2023-04-27T03:51:46.169Z,0.06
2023-04-27T03:54:47.702Z,0.03
2023-04-27T03:57:49.297Z,0.01
2023-04-27T04:00:50.803Z,-0.00
2023-04-27T04:03:52.642Z,-0.02
2023-04-27T04:06:54.310Z,-0.04
2023-04-27T04:09:57.110Z,-0.06
2023-04-27T04:12:58.848Z,-0.07
2023-04-27T04:16:05.722Z,-0.08
2023-04-27T04:19:07.460Z,-0.09
2023-04-27T04:22:09.001Z,-0.10
2023-04-27T04:25:10.746Z,-0.11
2023-04-27T04:28:12.271Z,-0.12
2023-04-27T04:31:15.152Z,-0.12
2023-04-27T04:34:16.801Z,-0.12
2023-04-27T04:37:20.994Z,-0.11
2023-04-27T04:40:22.507Z,-0.09
2023-04-27T04:43:24.471Z,-0.01
2023-04-27T04:46:26.093Z,0.08
2023-04-27T04:49:27.821Z,0.14
2023-04-27T04:52:29.423Z,0.21
2023-04-27T04:55:31.144Z,0.26
2023-04-27T04:58:33.343Z,0.29
2023-04-27T05:01:35.037Z,0.33
2023-04-27T05:04:36.755Z,0.35
2023-04-27T05:07:38.555Z,0.37
2023-04-27T05:10:40.088Z,0.40
2023-04-27T05:13:41.711Z,0.42
2023-04-27T05:16:43.504Z,0.44
2023-04-27T05:19:45.187Z,0.48
2023-04-27T05:22:46.815Z,0.53
2023-04-27T05:25:48.395Z,0.55
2023-04-27T05:28:49.957Z,0.57
2023-04-27T05:31:51.549Z,0.61
2023-04-27T05:34:53.146Z,0.70
2023-04-27T05:37:54.966Z,0.81
2023-04-27T05:40:58.522Z,0.93
2023-04-27T05:44:00.121Z,1.05
2023-04-27T05:47:01.929Z,1.17
2023-04-27T05:50:03.962Z,1.30
2023-04-27T05:53:05.749Z,1.40
2023-04-27T05:56:07.804Z,1.51
2023-04-27T05:59:09.968Z,1.64
2023-04-27T06:02:11.748Z,1.73
2023-04-27T06:05:13.406Z,1.85
2023-04-27T06:08:15.384Z,1.95
2023-04-27T06:11:17.181Z,2.07
2023-04-27T06:14:18.841Z,2.18
2023-04-27T06:17:21.814Z,2.31
2023-04-27T06:20:23.530Z,2.44
2023-04-27T06:23:25.182Z,2.59
2023-04-27T06:26:27.030Z,2.72
2023-04-27T06:29:28.570Z,2.84
2023-04-27T06:32:30.158Z,2.96
2023-04-27T06:35:31.765Z,3.11
2023-04-27T06:38:33.318Z,3.26
2023-04-27T06:41:34.885Z,3.42
2023-04-27T06:44:36.814Z,3.58
2023-04-27T06:47:38.634Z,3.70
2023-04-27T06:50:40.582Z,3.80
2023-04-27T06:53:42.489Z,3.93
2023-04-27T06:56:44.873Z,4.09
2023-04-27T06:59:46.482Z,4.25
2023-04-27T07:02:48.107Z,4.38
2023-04-27T07:05:51.712Z,4.51
2023-04-27T07:08:53.274Z,4.62
2023-04-27T07:11:55.455Z,4.72
2023-04-27T07:14:57.020Z,4.82
2023-04-27T07:17:58.694Z,4.97
2023-04-27T07:21:00.314Z,5.12
2023-04-27T07:24:01.952Z,5.27
2023-04-27T07:27:04.154Z,5.40
2023-04-27T07:30:09.248Z,5.58
2023-04-27T07:33:10.843Z,5.78
2023-04-27T07:36:12.489Z,5.94
2023-04-27T07:39:15.120Z,6.11
2023-04-27T07:42:16.819Z,6.26
2023-04-27T07:45:18.391Z,6.42
2023-04-27T07:48:20.159Z,6.60
2023-04-27T07:51:21.935Z,6.83
2023-04-27T07:54:23.525Z,7.03
2023-04-27T07:57:25.187Z,7.21
2023-04-27T08:00:26.967Z,7.42
2023-04-27T08:03:28.912Z,7.63
2023-04-27T08:06:31.185Z,7.81
2023-04-27T08:09:33.011Z,7.96
2023-04-27T08:12:35.021Z,8.07
2023-04-27T08:15:37.422Z,8.15
2023-04-27T08:18:39.032Z,8.15
2023-04-27T08:21:40.702Z,8.09
2023-04-27T08:24:42.318Z,8.01
2023-04-27T08:27:43.951Z,7.94
2023-04-27T08:30:45.870Z,7.98
2023-04-27T08:33:48.024Z,8.09
2023-04-27T08:36:49.639Z,8.23
2023-04-27T08:39:51.238Z,8.39
2023-04-27T08:42:57.661Z,8.45
2023-04-27T08:45:59.233Z,8.39
2023-04-27T08:49:01.212Z,8.38
2023-04-27T08:52:02.823Z,8.44
2023-04-27T08:55:04.993Z,8.56
2023-04-27T08:58:06.582Z,8.76
2023-04-27T09:01:08.513Z,8.91
2023-04-27T09:04:11.853Z,9.04
2023-04-27T09:07:18.132Z,9.17
2023-04-27T09:10:19.827Z,9.31
2023-04-27T09:13:21.705Z,9.45
2023-04-27T09:16:24.770Z,9.63
2023-04-27T09:19:30.818Z,9.92
2023-04-27T09:22:32.414Z,10.07
2023-04-27T09:25:34.563Z,9.97
2023-04-27T09:28:39.680Z,9.79
2023-04-27T09:31:41.964Z,9.75
2023-04-27T09:34:44.310Z,9.75
2023-04-27T09:37:45.969Z,9.72
2023-04-27T09:40:49.072Z,9.86
2023-04-27T09:43:51.612Z,9.90
2023-04-27T09:46:53.669Z,9.82
2023-04-27T09:49:56.342Z,9.69
2023-04-27T09:52:58.025Z,9.75
2023-04-27T09:56:16.503Z,9.81
2023-04-27T09:59:45.664Z,9.81
2023-04-27T10:03:05.297Z,9.73
2023-04-27T10:06:10.202Z,9.64
2023-04-27T10:09:12.711Z,9.58
2023-04-27T10:12:17.259Z,9.59
2023-04-27T10:15:19.606Z,9.78
2023-04-27T10:18:29.797Z,9.91
2023-04-27T10:21:32.891Z,10.09
2023-04-27T10:24:41.300Z,10.23
2023-04-27T10:27:42.903Z,10.44
2023-04-27T10:30:48.476Z,10.72
2023-04-27T10:33:50.114Z,10.89
2023-04-27T10:37:06.620Z,11.00
2023-04-27T10:40:19.298Z,11.22
2023-04-27T10:43:28.117Z,11.43
2023-04-27T10:46:29.791Z,11.60
2023-04-27T10:49:31.446Z,11.78
2023-04-27T10:52:33.397Z,11.91
2023-04-27T10:55:36.243Z,12.01
2023-04-27T11:01:42.875Z,12.01
2023-04-27T11:04:44.732Z,12.14
2023-04-27T11:07:47.949Z,12.40
2023-04-27T11:10:52.382Z,12.71
2023-04-27T11:13:55.829Z,12.81
2023-04-27T11:16:57.421Z,12.79
2023-04-27T11:19:58.975Z,12.84
2023-04-27T11:23:00.570Z,12.83
2023-04-27T11:26:09.998Z,12.78
2023-04-27T11:29:14.100Z,12.68
2023-04-27T11:32:23.781Z,12.56
2023-04-27T11:35:34.681Z,12.35
2023-04-27T11:38:36.349Z,12.19
2023-04-27T11:41:39.225Z,12.11
2023-04-27T11:44:40.982Z,12.07
2023-04-27T11:47:47.424Z,12.10
2023-04-27T11:50:50.220Z,12.15
2023-04-27T11:53:52.289Z,12.20
2023-04-27T11:56:53.816Z,12.21
2023-04-27T12:00:02.613Z,12.16
2023-04-27T12:03:04.506Z,12.15
2023-04-27T12:06:27.713Z,12.20
2023-04-27T12:09:29.043Z,12.14
2023-04-27T12:12:31.254Z,12.01
2023-04-27T12:15:32.818Z,11.87
2023-04-27T12:18:34.400Z,11.71
2023-04-27T12:21:36.084Z,11.57
2023-04-27T12:24:37.630Z,11.44
2023-04-27T12:27:39.267Z,11.34
2023-04-27T12:30:40.930Z,11.29
2023-04-27T12:33:42.562Z,11.23
2023-04-27T12:36:44.159Z,11.15
2023-04-27T12:39:45.714Z,11.11
2023-04-27T12:42:47.274Z,11.12
2023-04-27T12:45:48.896Z,11.15
2023-04-27T12:48:50.896Z,11.13
2023-04-27T12:51:53.024Z,11.15
2023-04-27T12:54:57.781Z,11.29
2023-04-27T12:57:59.388Z,11.38
2023-04-27T13:01:00.990Z,11.41
2023-04-27T13:04:04.221Z,11.40
2023-04-27T13:07:06.532Z,11.36
2023-04-27T13:10:08.509Z,11.34
2023-04-27T13:13:10.078Z,11.29
2023-04-27T13:16:12.657Z,11.20
2023-04-27T13:19:14.255Z,11.13
2023-04-27T13:22:16.561Z,11.07
2023-04-27T13:25:19.885Z,11.06
2023-04-27T13:28:21.729Z,11.13
2023-04-27T13:31:23.337Z,11.29
2023-04-27T13:34:24.998Z,11.39
2023-04-27T13:37:27.134Z,11.45
2023-04-27T13:40:29.285Z,11.48
2023-04-27T13:43:31.348Z,11.52
2023-04-27T13:46:33.058Z,11.61
2023-04-27T13:49:34.674Z,11.67
2023-04-27T13:52:37.042Z,11.64
2023-04-27T13:55:38.703Z,11.61
2023-04-27T13:58:41.610Z,11.57
2023-04-27T14:01:43.573Z,11.54
2023-04-27T14:04:45.357Z,11.58
2023-04-27T14:07:47.106Z,11.62
2023-04-27T14:10:49.255Z,11.59
2023-04-27T14:13:50.831Z,11.54
2023-04-27T14:16:53.333Z,11.51
2023-04-27T14:19:55.138Z,11.46
2023-04-27T14:22:58.462Z,11.40
2023-04-27T14:26:00.240Z,11.41
2023-04-27T14:29:01.834Z,11.44
2023-04-27T14:32:04.395Z,11.51
2023-04-27T14:35:07.075Z,11.55
2023-04-27T14:38:08.713Z,11.57
2023-04-27T14:41:10.330Z,11.57
2023-04-27T14:44:11.974Z,11.55
2023-04-27T14:47:13.599Z,11.52
2023-04-27T14:50:15.211Z,11.47
2023-04-27T14:53:17.229Z,11.44
2023-04-27T14:56:18.811Z,11.40
2023-04-27T14:59:20.459Z,11.38
2023-04-27T15:02:22.090Z,11.29
2023-04-27T15:05:23.705Z,11.23
2023-04-27T15:08:25.322Z,11.15
2023-04-27T15:11:26.940Z,11.10
2023-04-27T15:14:28.528Z,11.05
2023-04-27T15:17:30.127Z,11.02
2023-04-27T15:20:32.545Z,10.99
2023-04-27T15:23:35.099Z,10.95
2023-04-27T15:26:36.895Z,10.91
2023-04-27T15:29:38.464Z,10.89
2023-04-27T15:32:40.656Z,10.89
2023-04-27T15:35:42.797Z,10.90
2023-04-27T15:38:44.449Z,10.92
2023-04-27T15:41:46.039Z,10.92
2023-04-27T15:44:47.758Z,10.91
2023-04-27T15:47:49.379Z,10.91
2023-04-27T15:50:51.087Z,10.88
2023-04-27T15:53:52.649Z,10.83
2023-04-27T15:56:54.511Z,10.77
2023-04-27T15:59:56.638Z,10.72
2023-04-27T16:02:58.699Z,10.67
2023-04-27T16:06:00.623Z,10.62
2023-04-27T16:09:03.708Z,10.55
2023-04-27T16:12:06.255Z,10.49
2023-04-27T16:15:10.963Z,10.42
2023-04-27T16:18:13.256Z,10.35
2023-04-27T16:21:14.988Z,10.29
2023-04-27T16:24:16.617Z,10.27
2023-04-27T16:27:20.213Z,10.20
2023-04-27T16:30:22.466Z,10.12
2023-04-27T16:33:24.009Z,10.03
2023-04-27T16:36:25.611Z,9.95
2023-04-27T16:39:27.239Z,9.89
2023-04-27T16:42:28.851Z,9.83
2023-04-27T16:45:30.825Z,9.77
2023-04-27T16:48:32.431Z,9.72
2023-04-27T16:51:34.162Z,9.64
2023-04-27T16:54:35.690Z,9.61
2023-04-27T16:57:37.225Z,9.57
2023-04-27T17:00:40.367Z,9.52
2023-04-27T17:03:42.020Z,9.48
2023-04-27T17:06:45.898Z,9.46
2023-04-27T17:09:47.425Z,9.45
2023-04-27T17:12:49.047Z,9.42
2023-04-27T17:15:51.815Z,9.39
2023-04-27T17:18:54.569Z,9.36
2023-04-27T17:21:56.366Z,9.27
2023-04-27T17:24:58.033Z,9.20
2023-04-27T17:28:01.237Z,9.12
2023-04-27T17:31:03.395Z,9.00
2023-04-27T17:34:05.027Z,8.97
2023-04-27T17:37:07.355Z,8.96
2023-04-27T17:40:09.439Z,8.95
2023-04-27T17:43:11.031Z,8.93
2023-04-27T17:46:12.628Z,8.90
2023-04-27T17:49:17.958Z,8.83
2023-04-27T17:52:19.931Z,8.79
2023-04-27T17:55:22.185Z,8.75
2023-04-27T17:58:23.785Z,8.68
2023-04-27T18:01:25.414Z,8.61
2023-04-27T18:04:27.232Z,8.55
2023-04-27T18:07:28.888Z,8.50
2023-04-27T18:10:30.393Z,8.44
2023-04-27T18:13:32.623Z,8.39
2023-04-27T18:16:34.197Z,8.34
2023-04-27T18:19:35.788Z,8.28
2023-04-27T18:22:40.031Z,8.24
2023-04-27T18:25:41.882Z,8.19
2023-04-27T18:28:43.493Z,8.14
2023-04-27T18:31:45.494Z,8.10
2023-04-27T18:34:47.055Z,8.04
2023-04-27T18:37:49.299Z,8.00
2023-04-27T18:40:50.833Z,7.97
2023-04-27T18:43:52.427Z,7.93
2023-04-27T18:46:54.035Z,7.87
2023-04-27T18:49:55.633Z,7.99
2023-04-27T18:52:59.185Z,7.88
2023-04-27T18:56:00.870Z,7.80
2023-04-27T18:59:02.488Z,7.70
2023-04-27T19:02:04.500Z,7.65
2023-04-27T19:05:12.899Z,7.61
2023-04-27T19:08:15.713Z,7.56
2023-04-27T19:11:19.468Z,7.49
2023-04-27T19:14:21.079Z,7.42
2023-04-27T19:17:22.858Z,7.34
2023-04-27T19:20:24.490Z,7.27
2023-04-27T19:23:26.134Z,7.22
2023-04-27T19:26:29.630Z,7.18
2023-04-27T19:29:31.386Z,7.16
2023-04-27T19:32:34.073Z,7.12
2023-04-27T19:35:35.842Z,7.04
2023-04-27T19:38:37.384Z,6.99
2023-04-27T19:41:39.721Z,6.97
2023-04-27T19:44:41.694Z,6.95
2023-04-27T19:47:43.495Z,6.93
2023-04-27T19:50:45.196Z,6.87
2023-04-27T19:53:46.770Z,6.85
2023-04-27T19:56:48.417Z,6.84
2023-04-27T19:59:50.031Z,6.81
2023-04-27T20:02:53.549Z,6.79
2023-04-27T20:05:55.822Z,6.72
2023-04-27T20:08:57.644Z,6.65
2023-04-27T20:11:59.355Z,6.63
2023-04-27T20:15:01.113Z,6.62
2023-04-27T20:18:02.758Z,6.57
2023-04-27T20:21:04.421Z,6.51
2023-04-27T20:24:06.390Z,6.44
2023-04-27T20:27:08.353Z,6.33
2023-04-27T20:30:10.144Z,6.22
2023-04-27T20:33:13.723Z,6.14
2023-04-27T20:36:18.227Z,6.09
2023-04-27T20:39:20.429Z,6.05
2023-04-27T20:42:22.591Z,6.01
2023-04-27T20:45:25.469Z,5.99
2023-04-27T20:48:28.562Z,5.94
2023-04-27T20:51:30.774Z,5.86
2023-04-27T20:54:32.979Z,5.82
2023-04-27T20:57:34.614Z,5.77
2023-04-27T21:00:36.213Z,5.72
2023-04-27T21:03:37.878Z,5.75
2023-04-27T21:06:39.660Z,6.05
2023-04-27T21:09:41.661Z,6.07
2023-04-27T21:12:43.199Z,5.97
2023-04-27T21:15:44.699Z,5.83
2023-04-27T21:18:46.293Z,5.71
2023-04-27T21:21:47.871Z,5.59
2023-04-27T21:24:49.468Z,5.50
2023-04-27T21:27:51.115Z,5.45
2023-04-27T21:30:52.770Z,5.40
2023-04-27T21:33:54.366Z,5.33
2023-04-27T21:36:55.982Z,5.26
2023-04-27T21:39:57.538Z,5.24
2023-04-27T21:42:59.114Z,5.25
2023-04-27T21:46:00.771Z,5.26
2023-04-27T21:49:03.347Z,5.26
2023-04-27T21:52:05.063Z,5.19
2023-04-27T21:55:06.687Z,5.11
2023-04-27T21:58:08.246Z,5.07
2023-04-27T22:01:11.191Z,5.07
2023-04-27T22:04:13.139Z,5.00
2023-04-27T22:07:14.853Z,4.90
2023-04-27T22:10:16.386Z,4.81
2023-04-27T22:13:19.573Z,4.71
2023-04-27T22:16:22.143Z,4.71
2023-04-27T22:19:25.352Z,4.60
2023-04-27T22:22:26.994Z,4.51
2023-04-27T22:25:28.680Z,4.38
2023-04-27T22:28:30.828Z,4.27
2023-04-27T22:31:32.673Z,4.16
2023-04-27T22:34:34.285Z,4.06
2023-04-27T22:37:36.507Z,3.96
2023-04-27T22:40:38.079Z,3.88
2023-04-27T22:43:39.611Z,3.81
2023-04-27T22:46:43.527Z,3.76
2023-04-27T22:49:45.079Z,3.75
2023-04-27T22:52:46.849Z,3.74
2023-04-27T22:55:48.403Z,3.72
2023-04-27T22:58:50.046Z,3.66
2023-04-27T23:01:52.106Z,3.59
2023-04-27T23:04:53.732Z,3.54
2023-04-27T23:07:55.307Z,3.46
2023-04-27T23:10:57.671Z,3.37
2023-04-27T23:13:59.214Z,3.33
2023-04-27T23:17:01.921Z,3.29
2023-04-27T23:20:20.417Z,3.26
2023-04-27T23:23:28.651Z,3.23
2023-04-27T23:26:30.177Z,3.19
2023-04-27T23:29:31.739Z,3.15
2023-04-27T23:32:34.415Z,3.11
2023-04-27T23:35:36.105Z,3.06
2023-04-27T23:38:37.700Z,3.05
2023-04-27T23:41:39.223Z,3.02
2023-04-27T23:44:40.781Z,3.03
2023-04-27T23:47:42.988Z,3.01
2023-04-27T23:50:44.796Z,2.98
2023-04-27T23:53:46.294Z,2.93
2023-04-27T23:56:47.851Z,2.87
2023-04-27T23:59:49.469Z,2.83
